Terminal Aerodrome Forecast
Issued by NWS Wichita, KS

Home | Current Version | Previous Version | Graphics & Text | Print | Product List | Glossary On
Versions: 1 2 3 4 5 6 7 8 9 10 11 12 13 14 15 16 17 18 19
000
FTUS43 KICT 301040 AAB
TAFICT
TAF AMD
KICT 301040Z 3011/3106 10010KT P6SM VCTS BKN050CB
      TEMPO 3012/3015 2SM +TSRA BKN020CB
     FM301700 11008KT P6SM SCT040 SCT200=

USA.gov is the U.S. government's official web portal to all federal, state and local government web resources and services.